Terminal Aerodrome Forecast
Issued by NWS Cleveland, OH

Home | Current Version | Previous Version | Graphics & Text | Print | Product List | Glossary On
Versions: 1 2 3 4 5 6 7 8 9 10 11 12 13 14 15 16 17 18 19
000
FTUS41 KCLE 181700
TAFERI
TAF
KERI 181726Z 1818/1918 29010KT P6SM FEW050 SCT200
     FM182000 01010KT P6SM SCT200
     FM190000 07008KT P6SM BKN200
     FM191300 12010G20KT P6SM SCT120 BKN200=

USA.gov is the U.S. government's official web portal to all federal, state and local government web resources and services.